My Meet Scores
Elizabeth Kozak, St. Charles Gymnastics Academy - MyMeetScores.com
Top100 | Top Teams | Upcoming Meets | Completed Meets | Latest | Add Scores | Help| Support | Bookmark and Share

Elizabeth Kozak, St. Charles Gymnastics Academy
Personal Bests
LevelVault BarsBeamFloorAA
38.9258.300 8.6008.15033.975
48.5258.700 9.4009.25035.700
68.7009.400 9.6259.32537.050
78.4008.850 9.7509.57535.775
Scores on America's Top 100as of 06.05.2020
Year Level Vault Bars Beam Floor AA
2020 79.750

Click here to view our exclusive Top 100 Collection
Meet Scores
Date Meet Team Session Level Division Vault Bars Beam Floor AA
2020-02-28 MEGA Spring Invite 2020 St. Charles Gymnastics Academy 3 7 Junior A 8.275 21 8.850 16T 9.750 1 8.850 16 35.725 14
2020-02-07 SCGA Classic St. Charles Gymnastics Academy 2 7 child 8.400 7T 8.500 6 9.300 2T 9.575 1 35.775 5
2020-01-10 St Jude Benefit Meet St. Charles Gymnastics Academy 5B 7 Jr A 7.225 17 0.000 18 9.225 5 9.275 9 25.725 17
2019-12-13 2019 St Nick St. Charles Gymnastics Academy 2 7 JrA 8.225 15 8.500 6 8.600 9 8.850 9T 34.175 11
2019-03-15 Illinois State Championship Level 6,9,10 St. Charles Gymnastics Academy 12 6 Jr B 8.700 19 9.400 8T 9.625 3T 9.325 18 37.050 12
2019-02-15 Women's Midwest Open St. Charles Gymnastics Academy 01 6 Junior A 7.300 14 9.075 6 9.375 2 9.025 12 34.775 13
2019-01-11 St Jude Benefit Meet St. Charles Gymnastics Academy 2B 6 Jr A 8.200 10 9.400 1 9.450 2 9.300 10T 36.350 2
2018-12-07 St. Nick Invite 2018 St. Charles Gymnastics Academy 2 6 JrA 8.250 9 8.925 6T 9.400 1 9.225 7 35.800 5
2018-03-08 Level 4 & 5 State St. Charles Gymnastics Academy All 4 Ch F 8.425 26 8.700 19 9.325 14T 9.250 7T 35.700 17
2018-02-23 Kinetic Classic St. Charles Gymnastics Academy 7 4 Younger 7.575 88 8.650 52T 8.950 51T 8.125 86 33.300 74T
2018-02-16 Big Classic St. Charles Gymnastics Academy 7B 4 Child B 7.925 12 8.650 9 9.400 6T 7.950 14 33.925 12
2018-01-26 King Arthur Invitational St. Charles Gymnastics Academy 6 4 JR B 8.525 17 8.200 13 9.175 6 8.725 11T 34.625 11T
2018-01-12 St Jude Benefit Meet St. Charles Gymnastics Academy 2A 4 JrB 7.550 19 8.500 16 9.325 3 8.625 14 34.000 16
2017-12-14 2017 Women's Hawaiian Pineapple Classic St. Charles Gymnastics Academy 6A 4 Age9 7.875 14 8.400 8 9.325 2 8.700 8 34.300 6
2017-11-17 SCGA Classic St. Charles Gymnastics Academy 2 4 JrA 8.100 13 7.950 8 8.875 6 8.750 9 33.675 9
2017-02-24 Kinetic Classic St. Charles Gymnastics Academy 5,6 4 All Ages 7.200 131 7.425 122 8.875 89 7.225 132 30.725 128
2017-02-10 IGI Chicago Style Gymnastics Meet St. Charles Gymnastics Academy 621L 4 JrA 7.300 21 7.750 18 6.600 22 7.950 16 29.600 21
2017-01-20 2017 Bravo Classic St. Charles Gymnastics Academy 06B 4 6-8yrs 7.350 12 7.650 11 8.450 11 8.075 11 31.525 11
2017-01-13 St Jude Benefit Meet St. Charles Gymnastics Academy 3A 4 Jr A 7.800 13T 7.500 16T 8.750 8T 8.100 13 32.150 14
2016-12-15 2016 Hawaiian Pineapple Sanction St. Charles Gymnastics Academy 9A 4 Ages 8U 7.700 6 7.650 5 8.100 4T 8.300 5 31.750 5
2016-12-02 Ultimate Wish Classic St. Charles Gymnastics Academy 13 4 Jr A 7.800 20 6.550 16 7.550 20 8.175 17T 30.075 16
2016-01-22 King Arthur Invitational St. Charles Gymnastics Academy S7 3 Jr.A 8.925 7 8.300 11 8.600 9 8.150 17 33.975 11
Get your scores on
a t-shirt, pin, or hoodie

www.lazysuits.com